Time;durP1;ratioP1;P1;durP2;ratioP2;P2;SDS_P1;SDS_P2;PMS_P1;PMS_P2;Temp;Humidity;BMP_temperature;BMP_pressure;BME280_temperature;BME280_humidity;BME280_pressure;Samples;Min_cycle;Max_cycle;Signal;HPM_P1;HPM_P2
2023/01/25 00:01:06;;;;;;;11.60;7.20;;;6.40;58.00;;;4.53;61.79;103475.91;12257413;19;20049;-90
2023/01/25 00:05:08;;;;;;;10.75;6.88;;;6.10;57.90;;;4.55;61.78;103463.00;12254038;19;20352;-90
2023/01/25 00:09:11;;;;;;;10.80;6.97;;;6.20;58.00;;;4.53;61.79;103459.53;12257844;19;20468;-90
2023/01/25 00:13:13;;;;;;;10.30;7.10;;;6.10;57.90;;;4.73;62.00;103488.28;12258892;19;20417;-90
2023/01/25 00:17:15;;;;;;;13.65;8.02;;;6.20;58.40;;;4.30;61.87;103402.28;12257903;19;20492;-90
2023/01/25 00:21:21;;;;;;;12.20;7.55;;;6.20;58.00;;;4.27;61.84;103390.19;12258129;19;20031;-90
2023/01/25 00:25:22;;;;;;;11.25;7.68;;;6.20;57.90;;;4.54;61.94;103418.16;12250993;19;20048;-89
2023/01/25 00:29:24;;;;;;;13.38;7.68;;;6.20;57.90;;;4.39;61.84;103369.66;12257719;19;20370;-90
2023/01/25 00:34:04;;;;;;;12.32;7.07;;;6.40;58.10;;;4.72;61.97;103409.75;12255967;19;20018;-89
2023/01/25 00:38:23;;;;;;;15.60;7.57;;;6.20;57.90;;;4.63;62.03;103384.63;12258124;19;20062;-90
2023/01/25 00:42:27;;;;;;;10.73;7.15;;;6.20;57.90;;;4.66;62.06;103395.00;12252727;19;20025;-89
2023/01/25 00:46:29;;;;;;;10.82;7.15;;;6.10;57.90;;;4.65;61.89;103376.88;12249331;19;20018;-90
2023/01/25 00:50:30;;;;;;;10.77;6.97;;;6.30;58.00;;;4.70;61.90;103385.59;12253847;19;20401;-90
2023/01/25 00:54:32;;;;;;;10.55;6.80;;;6.50;58.00;;;4.17;61.99;103292.63;12253760;19;20587;-90
2023/01/25 00:58:34;;;;;;;13.00;7.22;;;6.20;57.90;;;4.08;61.80;103279.56;12254779;19;20010;-90
2023/01/25 01:02:39;;;;;;;11.60;7.30;;;6.40;58.00;;;4.44;61.86;103338.66;12252373;19;20476;-90
2023/01/25 01:06:44;;;;;;;14.65;7.32;;;6.20;58.00;;;4.54;61.89;103361.22;12250601;19;20464;-90
2023/01/25 01:10:46;;;;;;;10.10;6.55;;;6.20;57.90;;;4.28;61.76;103322.09;12254470;19;20369;-90
2023/01/25 01:20:24;;;;;;;9.65;6.30;;;6.10;57.90;;;4.20;61.94;103301.28;12256611;19;20007;-90
2023/01/25 01:24:30;;;;;;;11.45;7.50;;;6.20;58.00;;;4.23;62.03;103308.22;12252048;19;20345;-90
2023/01/25 01:28:34;;;;;;;12.68;7.38;;;6.20;58.00;;;4.48;61.95;103360.25;12252893;19;20472;-90
2023/01/25 01:32:36;;;;;;;11.18;6.57;;;6.10;57.90;;;4.22;61.92;103311.66;12254674;19;20011;-90
2023/01/25 01:36:38;;;;;;;11.65;6.70;;;6.10;58.10;;;4.20;61.80;103306.47;12250727;19;20017;-90
2023/01/25 01:40:47;;;;;;;14.15;7.88;;;6.10;58.10;;;4.45;61.89;103348.16;12252847;19;20006;-90
2023/01/25 01:44:53;;;;;;;14.32;8.27;;;6.20;58.00;;;4.31;61.83;103329.88;12250381;19;20018;-90
2023/01/25 01:49:22;;;;;;;10.15;6.47;;;6.10;58.00;;;4.65;61.87;103382.06;12252721;19;20007;-90
2023/01/25 01:53:26;;;;;;;11.07;7.18;;;6.10;58.00;;;4.21;61.77;103307.31;12249702;19;20017;-90
2023/01/25 01:57:40;;;;;;;11.88;7.13;;;6.10;58.00;;;4.30;61.77;103330.72;12250992;19;20011;-90
2023/01/25 02:01:44;;;;;;;11.48;6.78;;;6.10;58.00;;;4.22;61.72;103307.34;12247839;19;20089;-90
2023/01/25 02:06:00;;;;;;;12.45;7.00;;;6.10;58.00;;;4.35;61.85;103335.97;12245309;19;20368;-90
2023/01/25 02:10:09;;;;;;;10.35;6.68;;;6.10;58.00;;;4.23;61.85;103300.47;12249586;19;20350;-90
2023/01/25 02:14:15;;;;;;;9.45;6.10;;;6.10;58.10;;;4.08;62.05;103266.63;12247895;19;20369;-90
2023/01/25 02:18:18;;;;;;;13.07;6.97;;;6.10;58.10;;;4.26;62.01;103297.91;12249643;19;20048;-90
2023/01/25 02:22:30;;;;;;;8.98;5.82;;;6.40;58.20;;;4.20;62.03;103298.69;12243617;19;20014;-90
2023/01/25 02:26:32;;;;;;;10.90;7.03;;;6.40;58.20;;;4.23;61.99;103282.34;12246486;19;20007;-90
2023/01/25 02:30:34;;;;;;;10.20;6.72;;;6.10;58.10;;;4.22;61.96;103289.25;12246909;19;20020;-90
2023/01/25 02:34:36;;;;;;;13.23;7.10;;;6.10;58.10;;;4.18;61.89;103296.94;12245114;19;20022;-90
2023/01/25 02:38:44;;;;;;;10.52;6.30;;;6.10;58.10;;;4.54;62.05;103352.59;12248136;19;20051;-90
2023/01/25 02:42:46;;;;;;;13.32;8.00;;;6.10;58.10;;;4.34;62.11;103313.53;12244512;19;20018;-90
2023/01/25 02:46:49;;;;;;;10.48;6.35;;;6.30;58.20;;;4.22;62.00;103293.56;12244098;19;20016;-90
2023/01/25 02:50:51;;;;;;;10.38;6.78;;;6.10;58.20;;;4.30;61.84;103296.25;12246627;19;20006;-90
2023/01/25 02:54:53;;;;;;;12.48;7.47;;;6.10;58.20;;;4.23;61.95;103284.94;12244647;19;20030;-90
2023/01/25 02:58:55;;;;;;;12.15;7.50;;;6.10;58.20;;;4.23;61.92;103277.19;12246952;19;19998;-90
2023/01/25 03:02:57;;;;;;;10.73;7.43;;;6.10;58.20;;;4.48;61.96;103318.88;12244895;19;20015;-90
2023/01/25 03:06:59;;;;;;;13.00;6.90;;;6.10;58.20;;;4.07;61.99;103250.25;12247646;19;20010;-90
2023/01/25 03:11:05;;;;;;;11.00;7.10;;;6.10;58.10;;;4.20;61.96;103269.41;12245622;19;20431;-90
2023/01/25 03:15:08;;;;;;;12.27;7.63;;;6.10;58.10;;;4.44;61.92;103305.03;12245236;19;20014;-90
2023/01/25 03:19:10;;;;;;;11.43;7.63;;;6.10;58.20;;;4.13;61.86;103247.78;12248264;19;20091;-90
2023/01/25 03:23:15;;;;;;;11.70;6.97;;;6.10;58.30;;;4.12;61.76;103243.44;12245875;19;20022;-90
2023/01/25 03:27:17;;;;;;;9.18;6.53;;;6.10;58.20;;;4.24;62.12;103254.78;12247198;19;20019;-90
2023/01/25 03:31:23;;;;;;;10.55;6.72;;;6.10;58.20;;;4.21;62.01;103250.44;12245357;19;20014;-90
2023/01/25 03:35:26;;;;;;;10.50;7.20;;;6.10;58.30;;;4.21;61.97;103256.50;12244118;19;20015;-90
2023/01/25 03:39:31;;;;;;;7.68;5.68;;;6.30;58.30;;;4.65;61.94;103330.31;12247893;19;20006;-90
2023/01/25 03:43:32;;;;;;;12.38;7.38;;;6.20;58.20;;;3.94;61.85;103200.16;12243491;19;20027;-90
2023/01/25 03:47:35;;;;;;;10.88;6.78;;;6.10;58.20;;;4.21;62.12;103237.50;12245856;19;20015;-90
2023/01/25 03:51:38;;;;;;;11.27;6.97;;;6.10;58.30;;;4.09;62.14;103209.78;12244896;19;20021;-90
2023/01/25 03:55:42;;;;;;;15.40;8.18;;;6.10;58.30;;;4.24;62.17;103236.66;12239492;19;20006;-90
2023/01/25 03:59:44;;;;;;;10.40;7.47;;;6.10;58.30;;;4.33;61.89;103249.72;12244970;19;20251;-90
2023/01/25 04:03:46;;;;;;;13.82;7.95;;;6.10;58.30;;;4.34;61.95;103238.50;12242563;19;20029;-90
2023/01/25 04:07:48;;;;;;;12.38;7.65;;;6.30;58.30;;;4.26;61.82;103222.91;12243547;19;20014;-90
2023/01/25 04:11:55;;;;;;;11.15;7.07;;;6.10;58.30;;;4.26;61.86;103209.09;12243954;19;20018;-89
2023/01/25 04:15:57;;;;;;;11.27;7.25;;;6.40;58.40;;;4.18;61.89;103188.34;12240115;19;20074;-89
2023/01/25 04:20:19;;;;;;;10.77;6.78;;;6.10;58.40;;;4.27;61.92;103191.03;12243835;19;20014;-90
2023/01/25 04:24:21;;;;;;;11.70;7.03;;;6.20;58.40;;;4.28;62.13;103185.00;12248423;19;20025;-90
2023/01/25 04:28:24;;;;;;;9.93;7.05;;;6.10;58.30;;;4.51;61.83;103220.59;12255430;19;20374;-90
2023/01/25 04:32:26;;;;;;;10.80;7.07;;;6.20;58.30;;;4.09;62.05;103155.50;12253538;19;20018;-90
2023/01/25 04:36:29;;;;;;;10.18;6.93;;;6.20;58.30;;;4.14;62.01;103153.81;12251806;19;20010;-90
2023/01/25 04:40:33;;;;;;;12.80;7.32;;;6.10;58.30;;;4.30;62.08;103185.91;12253873;19;20019;-90
2023/01/25 04:44:34;;;;;;;11.88;7.35;;;6.10;58.30;;;4.28;62.04;103160.88;12250618;19;20013;-90
2023/01/25 04:48:39;;;;;;;14.00;7.22;;;6.10;58.30;;;4.54;62.02;103213.75;12254599;19;20462;-90
2023/01/25 04:52:42;;;;;;;10.80;7.10;;;6.20;58.40;;;4.26;61.95;103155.66;12249434;19;20010;-90
2023/01/25 04:56:44;;;;;;;11.00;7.53;;;6.10;58.40;;;4.60;62.14;103212.94;12241396;19;20011;-90
2023/01/25 05:00:46;;;;;;;10.55;6.72;;;6.20;58.40;;;4.16;62.06;103139.19;12251940;19;20014;-90
2023/01/25 05:04:48;;;;;;;12.55;8.25;;;6.20;58.40;;;4.29;62.13;103155.69;12251893;19;20430;-90
2023/01/25 05:08:51;;;;;;;9.50;6.82;;;6.40;58.60;;;4.27;61.98;103141.91;12253388;19;20090;-90
2023/01/25 05:12:53;;;;;;;11.95;7.53;;;6.10;58.30;;;4.41;61.94;103155.81;12254336;19;20014;-90
2023/01/25 05:16:55;;;;;;;10.85;7.05;;;6.20;58.40;;;4.55;62.21;103187.00;12252711;19;20467;-90
2023/01/25 05:20:57;;;;;;;10.50;6.88;;;6.40;58.50;;;4.73;62.23;103217.38;12249493;19;20042;-90
2023/01/25 05:25:02;;;;;;;13.20;7.50;;;6.20;58.40;;;4.53;62.18;103180.94;12246354;19;20093;-90
2023/01/25 05:29:04;;;;;;;11.43;6.80;;;6.40;58.40;;;4.12;61.97;103111.56;12253782;19;20010;-90
2023/01/25 05:33:14;;;;;;;12.13;7.63;;;6.20;58.40;;;4.62;62.09;103190.53;12246090;19;20046;-90
2023/01/25 05:37:20;;;;;;;9.15;6.65;;;6.20;58.40;;;4.17;62.08;103121.97;12249428;19;20023;-90
2023/01/25 05:41:26;;;;;;;11.10;7.05;;;6.20;58.30;;;4.22;62.24;103134.09;12250949;19;20014;-90
2023/01/25 05:45:31;;;;;;;11.93;7.43;;;6.20;58.40;;;4.31;62.21;103148.81;12249103;19;20018;-90
2023/01/25 05:49:33;;;;;;;11.73;6.93;;;6.20;58.40;;;4.33;62.15;103143.69;12252362;19;20024;-90
2023/01/25 05:53:37;;;;;;;11.30;6.87;;;6.20;58.40;;;4.30;61.99;103149.69;12250031;19;20018;-90
2023/01/25 05:57:39;;;;;;;11.25;7.53;;;6.40;58.60;;;4.51;62.06;103181.78;12251092;19;20361;-90
2023/01/25 06:01:41;;;;;;;9.57;6.05;;;6.20;58.40;;;4.27;62.19;103141.91;12251507;19;20006;-90
2023/01/25 06:05:43;;;;;;;10.82;6.47;;;6.30;58.50;;;4.30;62.03;103136.75;12247220;19;20011;-90
2023/01/25 06:09:44;;;;;;;11.68;7.50;;;6.10;58.40;;;4.29;62.29;103132.41;12248881;19;20033;-90
2023/01/25 06:13:48;;;;;;;12.95;7.07;;;6.10;58.50;;;4.34;62.26;103128.16;12249456;19;20013;-90
2023/01/25 06:17:54;;;;;;;13.27;8.30;;;6.20;58.50;;;4.42;62.08;103134.25;12249056;19;20030;-90
2023/01/25 06:22:09;;;;;;;13.13;8.60;;;6.20;58.50;;;4.36;62.33;103121.28;12249316;19;20006;-90
2023/01/25 06:26:13;;;;;;;14.27;8.98;;;6.20;58.60;;;4.45;62.30;103138.59;12246859;19;20010;-90
2023/01/25 06:30:15;;;;;;;11.70;7.93;;;6.20;58.50;;;4.65;62.20;103167.25;12248583;19;20102;-90
2023/01/25 06:34:17;;;;;;;12.68;7.88;;;6.30;58.50;;;4.28;62.32;103091.03;12248174;19;20018;-90
2023/01/25 06:38:19;;;;;;;12.13;7.82;;;6.20;58.50;;;4.81;62.40;103179.47;12249331;19;20038;-91
2023/01/25 06:42:24;;;;;;;11.15;7.50;;;6.20;58.60;;;4.37;62.28;103104.03;12247460;19;20015;-90
2023/01/25 06:46:26;;;;;;;14.38;8.20;;;6.30;58.60;;;4.33;62.24;103099.72;12241601;19;20018;-90
2023/01/25 06:50:28;;;;;;;12.90;7.63;;;6.30;58.60;;;4.79;62.17;103188.94;12248774;19;20393;-90
2023/01/25 06:54:30;;;;;;;14.18;8.48;;;6.30;58.50;;;4.75;62.35;103170.78;12246255;19;20361;-91
2023/01/25 06:58:32;;;;;;;12.35;7.65;;;6.30;58.60;;;4.62;62.12;103133.59;12248836;19;20018;-89
2023/01/25 07:02:35;;;;;;;12.73;6.70;;;6.30;58.50;;;4.67;62.35;103137.06;12247803;19;20422;-90
2023/01/25 07:06:38;;;;;;;12.02;6.90;;;6.30;58.60;;;4.68;62.30;103130.19;12244553;19;20082;-89
2023/01/25 07:10:51;;;;;;;13.20;7.30;;;6.30;58.60;;;4.76;62.28;103147.50;12246329;19;20468;-90
2023/01/25 07:15:58;;;;;;;10.95;6.97;;;6.30;58.60;;;4.52;62.27;103100.72;12245160;19;20367;-89
2023/01/25 07:20:00;;;;;;;12.40;6.95;;;6.30;58.60;;;4.28;62.08;103045.34;12246519;19;20018;-90
2023/01/25 07:29:18;;;;;;;10.73;6.80;;;6.40;58.70;;;4.36;62.28;103063.53;12248030;19;20014;-89
2023/01/25 07:33:21;;;;;;;12.10;6.85;;;6.30;58.70;;;4.36;62.29;103063.53;12245070;19;20011;-90
2023/01/25 07:37:38;;;;;;;;;;;;;;;;;;;;;
2023/01/25 07:41:56;;;;;;;12.60;7.22;;;6.30;58.80;;;4.40;62.28;103060.09;12243501;19;20066;-91
2023/01/25 07:46:10;;;;;;;9.50;6.50;;;6.30;58.70;;;4.35;62.28;103049.72;12235551;19;20019;-89
2023/01/25 07:50:44;;;;;;;;;;;;;;;;;;;;;
2023/01/25 07:55:46;;;;;;;8.43;5.22;;;6.50;58.90;;;4.78;62.35;103114.75;12242201;19;20010;-89
2023/01/25 07:59:48;;;;;;;12.30;5.97;;;6.30;58.70;;;4.58;62.16;103061.97;12254988;19;20078;-91
2023/01/25 08:03:58;;;;;;;10.75;6.95;;;6.30;58.80;;;4.22;62.11;103003.94;12259100;19;20006;-92
2023/01/25 08:08:00;;;;;;;10.75;6.40;;;6.20;58.70;;;4.49;62.23;103052.41;12261881;19;20015;-92
2023/01/25 08:12:02;;;;;;;10.98;6.28;;;6.20;58.80;;;4.50;62.31;103035.16;12259735;19;20018;-90
2023/01/25 08:16:19;;;;;;;11.82;6.97;;;6.20;58.70;;;4.82;62.20;103089.75;12246335;19;20086;-92
2023/01/25 08:20:22;;;;;;;12.38;6.68;;;6.30;58.70;;;4.29;62.40;103000.50;12259809;19;20040;-91
2023/01/25 08:24:27;;;;;;;11.07;6.38;;;6.20;58.70;;;4.83;62.44;103084.59;12253942;19;20014;-90
2023/01/25 08:28:34;;;;;;;9.32;6.47;;;6.30;58.80;;;4.12;62.31;102953.84;12259914;19;20002;-91
2023/01/25 08:33:00;;;;;;;;;;;;;;;;;;;;;
2023/01/25 08:37:28;;;;;;;8.77;5.68;;;6.40;58.90;;;4.54;62.44;103037.78;12257927;19;20018;-93
2023/01/25 08:49:57;;;;;;;9.85;5.15;;;6.30;58.60;;;4.82;62.24;103082.84;12281685;19;20037;-89
2023/01/25 08:54:05;;;;;;;11.18;6.50;;;6.30;58.70;;;4.70;62.20;103069.84;12255627;19;20348;-92
2023/01/25 08:58:18;;;;;;;10.23;5.60;;;6.20;58.70;;;4.77;62.48;103081.09;12256424;19;20010;-92
2023/01/25 09:02:26;;;;;;;9.27;5.55;;;6.50;58.90;;;4.77;62.47;103074.19;12254012;19;20695;-89
2023/01/25 09:10:44;;;;;;;9.20;5.95;;;6.20;58.80;;;4.32;62.13;102984.16;12254059;19;20014;-90
2023/01/25 09:14:50;;;;;;;11.05;6.00;;;6.50;58.90;;;4.38;62.21;103004.91;12253365;19;20023;-91
2023/01/25 09:19:04;;;;;;;9.00;5.80;;;6.20;58.80;;;4.80;62.41;103076.78;12253643;19;20018;-90
2023/01/25 09:38:17;;;;;;;12.98;6.43;;;6.20;58.80;;;4.74;62.43;103066.41;12244818;19;20010;-91
2023/01/25 09:42:39;;;;;;;11.45;6.28;;;6.20;58.90;;;4.30;62.25;102991.91;12250456;19;20026;-93
2023/01/25 09:46:51;;;;;;;13.20;6.88;;;6.20;58.90;;;4.79;62.19;103069.88;12249400;19;20006;-91
2023/01/25 09:51:18;;;;;;;13.52;8.20;;;6.20;58.80;;;4.45;62.19;103001.50;12252245;19;20015;-91
2023/01/25 09:55:25;;;;;;;13.48;6.97;;;6.20;58.80;;;4.33;62.41;102976.41;12250416;19;20018;-91
2023/01/25 09:59:29;;;;;;;14.23;8.07;;;6.20;58.80;;;4.59;62.33;103010.25;12251425;19;20023;-91
2023/01/25 10:04:26;;;;;;;14.10;7.45;;;6.20;58.90;;;4.82;62.40;103054.38;12240937;19;21101;-92
2023/01/25 10:08:58;;;;;;;17.00;8.43;;;6.30;58.90;;;4.36;62.26;102966.09;12247553;19;20585;-92
2023/01/25 10:13:04;;;;;;;13.48;7.20;;;6.30;58.80;;;4.62;62.28;103004.22;12246825;19;20014;-92
2023/01/25 10:17:30;;;;;;;14.75;8.30;;;6.20;58.80;;;4.32;62.19;102948.84;12248518;19;20082;-92
2023/01/25 10:21:53;;;;;;;14.32;7.78;;;6.20;58.80;;;4.21;62.20;102935.84;12245546;19;20025;-92
2023/01/25 10:26:03;;;;;;;14.05;7.50;;;6.20;58.80;;;4.33;62.27;102950.56;12246500;19;20015;-91
2023/01/25 10:30:29;;;;;;;11.85;6.88;;;6.20;58.80;;;4.76;62.31;103012.06;12248175;19;20047;-91
2023/01/25 10:34:37;;;;;;;14.05;7.22;;;6.20;58.90;;;4.54;62.49;102969.66;12250375;19;20015;-91
2023/01/25 10:38:45;;;;;;;11.98;6.40;;;6.40;58.90;;;4.74;62.51;102993.06;12249731;19;20015;-89
2023/01/25 10:43:01;;;;;;;10.90;6.82;;;6.20;58.80;;;4.63;62.30;102969.72;12249180;19;20006;-94
2023/01/25 10:47:11;;;;;;;14.07;7.60;;;6.20;58.90;;;4.64;62.53;102954.22;12251482;19;20027;-91
2023/01/25 10:51:32;;;;;;;12.15;7.40;;;6.20;58.90;;;4.40;62.42;102917.81;12248079;19;20099;-92
2023/01/25 10:55:34;;;;;;;10.55;7.05;;;6.20;58.90;;;4.45;62.22;102921.31;12246438;19;20034;-92
2023/01/25 10:59:36;;;;;;;10.30;5.53;;;6.20;58.80;;;4.36;62.48;102903.16;12247765;19;20744;-91
2023/01/25 11:03:45;;;;;;;11.52;5.80;;;6.20;58.90;;;4.31;62.54;102900.53;12245394;19;20019;-90
2023/01/25 11:07:48;;;;;;;11.75;6.15;;;6.20;58.90;;;4.26;62.36;102870.31;12245497;19;20011;-90
2023/01/25 11:12:20;;;;;;;10.98;5.30;;;6.20;58.90;;;4.41;62.49;102897.16;12249729;19;20062;-90
2023/01/25 11:16:39;;;;;;;9.90;5.72;;;6.20;58.80;;;4.29;62.29;102875.50;12248397;19;20432;-90
2023/01/25 11:20:41;;;;;;;8.00;4.93;;;6.20;59.10;;;4.47;62.38;102888.56;12248437;19;20017;-91
2023/01/25 11:24:43;;;;;;;9.15;5.50;;;6.20;58.80;;;4.14;62.40;102827.19;12244746;19;20011;-91
2023/01/25 11:28:48;;;;;;;8.77;5.60;;;6.10;58.90;;;4.27;62.56;102849.66;12248806;19;20018;-90
2023/01/25 11:32:51;;;;;;;10.77;5.88;;;6.20;58.90;;;4.19;62.41;102835.84;12247681;19;20020;-91
2023/01/25 11:37:16;;;;;;;12.20;5.70;;;6.20;59.00;;;4.72;62.27;102897.28;12257443;19;20010;-90
2023/01/25 11:41:47;;;;;;;10.10;5.32;;;6.10;58.90;;;4.27;62.45;102822.94;12261890;19;20453;-91
2023/01/25 11:46:05;;;;;;;7.35;4.53;;;6.10;58.90;;;4.72;62.55;102881.75;12254552;19;20007;-90
2023/01/25 11:50:46;;;;;;;11.23;5.72;;;6.10;58.90;;;4.27;62.44;102797.09;12261880;19;20002;-90
2023/01/25 11:55:05;;;;;;;11.18;6.50;;;6.10;58.90;;;4.71;62.32;102861.94;12254971;19;20010;-90
2023/01/25 11:59:42;;;;;;;12.30;6.47;;;6.10;59.00;;;4.55;62.32;102831.69;12255376;19;20034;-91
2023/01/25 12:04:26;;;;;;;13.00;6.53;;;6.10;58.90;;;4.03;62.38;102734.06;12254468;19;20011;-89
2023/01/25 12:09:18;;;;;;;10.20;5.55;;;6.20;58.90;;;4.08;62.40;102734.06;12257778;19;20011;-89
2023/01/25 12:13:47;;;;;;;11.27;6.20;;;6.10;58.90;;;4.71;62.54;102820.53;12256546;19;20014;-91
2023/01/25 12:18:30;;;;;;;13.55;6.95;;;6.20;58.90;;;4.70;62.38;102816.22;12252360;19;20021;-91
2023/01/25 12:22:40;;;;;;;9.57;6.25;;;6.10;59.00;;;4.71;62.52;102810.16;12254414;19;20024;-91
2023/01/25 12:26:54;;;;;;;9.30;5.82;;;6.10;59.40;;;4.71;62.40;102801.53;12252201;19;20057;-91
2023/01/25 12:31:31;;;;;;;9.95;6.28;;;6.40;59.20;;;4.55;62.45;102767.84;12259128;19;20006;-92
2023/01/25 12:36:06;;;;;;;9.23;6.72;;;6.10;59.00;;;4.66;62.57;102775.66;12250184;19;20019;-91
2023/01/25 12:40:49;;;;;;;13.68;7.28;;;6.10;59.00;;;4.68;62.37;102773.94;12257622;19;20732;-93
2023/01/25 12:45:42;;;;;;;9.95;5.85;;;6.10;59.00;;;4.63;62.34;102763.56;12249877;19;20338;-91
2023/01/25 12:50:14;;;;;;;11.10;5.68;;;6.10;59.00;;;4.62;62.64;102761.00;12257960;19;20082;-91
2023/01/25 12:54:31;;;;;;;9.80;6.53;;;6.10;59.00;;;4.59;62.29;102748.00;12253820;19;20051;-90
2023/01/25 12:59:01;;;;;;;11.05;5.70;;;6.10;59.10;;;4.66;62.57;102752.34;12256893;19;20340;-90
2023/01/25 13:03:47;;;;;;;11.40;5.82;;;6.10;59.10;;;4.64;62.42;102742.03;12254615;19;20052;-90
2023/01/25 13:07:58;;;;;;;;;;;6.10;59.10;;;4.53;62.36;102719.56;12260171;19;20031;-90
2023/01/25 13:12:03;;;;;;;9.25;5.22;;;6.10;59.10;;;4.65;62.55;102735.13;12256095;19;19934;-90
2023/01/25 13:16:32;;;;;;;;;;;6.10;59.00;;;4.64;62.57;102728.19;12256927;19;20025;-90
2023/01/25 13:20:40;;;;;;;9.38;5.28;;;6.10;59.00;;;4.66;62.57;102716.13;12257320;19;19915;-89
2023/01/25 13:25:17;;;;;;;12.32;6.10;;;6.10;58.90;;;4.67;62.61;102730.78;12250617;19;20022;-90
2023/01/25 13:29:42;;;;;;;11.13;6.10;;;6.10;59.00;;;4.69;62.44;102726.47;12252322;19;20014;-90
2023/01/25 13:33:44;;;;;;;11.02;6.38;;;6.10;59.00;;;4.30;62.37;102652.28;12255539;19;20022;-89
2023/01/25 13:38:03;;;;;;;12.65;7.38;;;6.20;59.10;;;4.64;62.58;102686.78;12253961;19;20014;-89
2023/01/25 13:42:10;;;;;;;10.95;6.22;;;6.20;59.10;;;4.73;62.58;102704.94;12251897;19;20434;-90
2023/01/25 13:46:17;;;;;;;15.80;8.32;;;6.20;59.10;;;4.58;62.35;102679.88;12250281;19;20606;-89
2023/01/25 13:50:28;;;;;;;10.05;6.55;;;6.10;59.00;;;4.54;62.58;102659.22;12253077;19;20531;-89
2023/01/25 13:54:29;;;;;;;14.82;7.88;;;6.10;59.00;;;4.63;62.42;102670.41;12250093;19;20014;-90
2023/01/25 13:58:46;;;;;;;12.52;7.68;;;6.10;59.00;;;4.55;62.48;102655.75;12254815;19;20022;-90
2023/01/25 14:02:53;;;;;;;13.35;6.78;;;6.10;59.00;;;4.50;62.27;102647.13;12252999;19;20014;-89
2023/01/25 14:06:59;;;;;;;12.20;7.40;;;6.10;59.00;;;4.59;62.38;102662.63;12248723;19;20021;-89
2023/01/25 14:11:01;;;;;;;;;;;6.40;59.10;;;4.36;62.42;102629.84;12250417;19;20018;-90
2023/01/25 14:15:30;;;;;;;;;;;6.20;59.10;;;4.37;62.50;102628.13;12248980;19;19915;-90
2023/01/25 14:19:35;;;;;;;;;;;6.00;58.90;;;4.50;62.78;102641.94;12249119;19;19918;-90
2023/01/25 14:23:37;;;;;;;;;;;6.30;59.10;;;4.46;62.70;102632.47;12251338;19;19951;-89
2023/01/25 14:27:44;;;;;;;;;;;6.30;59.10;;;4.59;62.87;102648.00;12251972;19;20263;-89
2023/01/25 14:31:50;;;;;;;;;;;6.10;59.00;;;4.52;62.93;102624.72;12250661;19;20225;-89
2023/01/25 14:35:52;;;;;;;;;;;6.20;59.00;;;4.44;62.94;102606.59;12248556;19;20139;-89
2023/01/25 14:39:53;;;;;;;;;;;6.20;58.90;;;4.56;62.76;102624.69;12249645;19;19915;-89
2023/01/25 14:44:00;;;;;;;;;;;6.20;59.00;;;4.60;62.88;102628.16;12248575;19;19911;-90
2023/01/25 14:48:02;;;;;;;;;;;6.20;58.90;;;4.46;62.98;102604.00;12249783;19;19918;-88
2023/01/25 14:52:08;;;;;;;;;;;6.20;58.90;;;4.62;62.73;102636.78;12249506;19;19926;-91
2023/01/25 14:56:31;;;;;;;;;;;6.20;58.80;;;4.52;62.95;102611.78;12245078;19;19911;-90
2023/01/25 15:00:34;;;;;;;;;;;6.20;58.80;;;4.22;62.91;102541.06;12247883;19;20250;-89
2023/01/25 15:04:35;;;;;;;;;;;6.30;58.90;;;4.50;62.88;102585.03;12246267;19;20253;-90
2023/01/25 15:08:37;;;;;;;;;;;6.30;59.00;;;4.18;62.89;102528.97;12244415;19;19918;-89
2023/01/25 15:12:39;;;;;;;;;;;6.20;58.80;;;4.25;62.73;102522.97;12247967;19;19938;-90
2023/01/25 15:16:41;;;;;;;;;;;6.30;59.00;;;4.72;62.91;102581.56;12243853;19;20336;-89
2023/01/25 15:20:48;;;;;;;;;;;6.40;59.00;;;4.23;62.65;102496.22;12247781;19;19982;-89
2023/01/25 15:24:49;;;;;;;;;;;6.30;58.90;;;4.60;62.85;102555.72;12244860;19;19914;-89
2023/01/25 15:28:53;;;;;;;;;;;6.30;58.80;;;4.25;62.72;102499.69;12245954;19;20261;-90
2023/01/25 15:32:55;;;;;;;;;;;6.60;58.90;;;4.48;62.85;102529.84;12240560;19;19952;-89
2023/01/25 15:36:57;;;;;;;;;;;6.50;58.80;;;4.73;62.70;102564.34;12243961;19;20324;-89
2023/01/25 15:41:01;;;;;;;;;;;6.40;58.90;;;4.17;62.88;102472.97;12247332;19;19938;-89
2023/01/25 15:45:04;;;;;;;;;;;6.40;58.80;;;4.28;62.72;102486.75;12244030;19;20007;-89
2023/01/25 15:49:07;;;;;;;;;;;6.40;58.80;;;4.21;62.96;102462.63;12246279;19;19911;-91
2023/01/25 15:53:17;;;;;;;;;;;6.40;58.70;;;4.17;62.76;102457.47;12245472;19;19926;-89
2023/01/25 15:57:30;;;;;;;;;;;6.40;58.70;;;4.35;62.66;102483.31;12246888;19;20309;-89
2023/01/25 16:01:34;;;;;;;;;;;6.40;58.70;;;4.29;62.78;102466.91;12243752;19;19994;-89
2023/01/25 16:05:35;;;;;;;;;;;6.40;58.80;;;4.27;62.76;102466.09;12239666;19;19923;-89
2023/01/25 16:09:37;;;;;;;;;;;6.40;58.70;;;4.48;62.61;102497.06;12243563;19;19914;-89
2023/01/25 16:13:40;;;;;;;;;;;6.30;59.10;;;4.13;62.69;102441.09;12245083;19;19922;-89
2023/01/25 16:17:41;;;;;;;;;;;6.30;58.70;;;4.43;62.89;102475.56;12244671;19;20648;-89
2023/01/25 16:21:43;;;;;;;;;;;6.40;58.70;;;4.23;62.71;102441.94;12257340;19;19915;-89
2023/01/25 16:25:47;;;;;;;;;;;6.30;58.70;;;4.31;62.83;102450.53;12251480;19;19914;-89
2023/01/25 16:29:48;;;;;;;;;;;6.30;58.70;;;4.25;62.91;102437.63;12255563;19;19922;-89
2023/01/25 16:33:50;;;;;;;;;;;6.60;58.80;;;4.22;62.83;102419.53;12256665;19;19923;-90
2023/01/25 16:37:51;;;;;;;;;;;6.30;58.80;;;4.27;62.88;102422.13;12256633;19;19918;-90
2023/01/25 16:41:53;;;;;;;;;;;6.30;58.70;;;4.20;62.85;102401.44;12257416;19;20261;-89
2023/01/25 16:45:56;;;;;;;;;;;6.30;58.70;;;4.13;62.83;102393.69;12254640;19;19951;-90
2023/01/25 16:50:00;;;;;;;;;;;6.50;58.80;;;4.35;62.78;102423.84;12259488;19;20325;-90
2023/01/25 16:54:02;;;;;;;;;;;6.50;58.70;;;4.26;62.76;102405.72;12255378;19;19922;-90
2023/01/25 16:58:03;;;;;;;;;;;6.40;58.80;;;4.13;62.71;102367.81;12255473;19;19922;-90
2023/01/25 17:02:05;;;;;;;;;;;6.30;58.80;;;4.13;62.73;102363.53;12256387;19;19918;-90
2023/01/25 17:06:13;;;;;;;;;;;6.40;58.80;;;4.24;62.65;102381.63;12253924;19;19915;-90
2023/01/25 17:10:16;;;;;;;;;;;6.40;59.10;;;4.28;62.88;102372.13;12257102;19;19927;-89
2023/01/25 17:14:18;;;;;;;;;;;6.40;58.70;;;4.25;62.85;102361.78;12257151;19;19944;-90
2023/01/25 17:18:19;;;;;;;;;;;6.60;58.70;;;4.24;62.86;102366.09;12256288;19;19914;-89
2023/01/25 17:22:21;;;;;;;;;;;6.40;58.70;;;4.15;62.84;102366.97;12257245;19;19914;-90
2023/01/25 17:26:24;;;;;;;;;;;6.30;58.70;;;4.24;62.87;102360.94;12253118;19;20250;-90
2023/01/25 17:30:26;;;;;;;;;;;6.30;58.60;;;4.50;62.77;102420.34;12256105;19;19918;-90
2023/01/25 17:34:31;;;;;;;;;;;6.30;58.60;;;4.27;62.84;102373.84;12253921;19;20325;-91
2023/01/25 17:38:35;;;;;;;;;;;6.10;58.50;;;4.20;62.84;102349.72;12252221;19;19975;-91
2023/01/25 17:42:43;;;;;;;;;;;6.20;58.60;;;4.42;62.79;102401.38;12254911;19;20376;-89
2023/01/25 17:46:47;;;;;;;;;;;6.30;58.60;;;4.19;62.92;102345.44;12249900;19;19923;-89
2023/01/25 17:51:04;;;;;;;;;;;6.50;58.80;;;4.06;62.91;102332.53;12255670;19;19923;-89
2023/01/25 17:55:09;;;;;;;;;;;6.30;58.60;;;4.20;62.73;102346.28;12251713;19;20326;-89
2023/01/25 17:59:13;;;;;;;;;;;6.30;58.70;;;4.19;62.74;102348.00;12254871;19;19919;-89
2023/01/25 18:03:17;;;;;;;;;;;6.20;58.60;;;4.20;62.73;102333.34;12251428;19;20261;-89
2023/01/25 18:07:21;;;;;;;;;;;6.50;58.70;;;3.85;62.82;102258.50;12254965;19;19921;-90
2023/01/25 18:11:31;;;;;;;;;;;6.30;58.70;;;4.07;62.80;102300.63;12255915;19;19933;-90
2023/01/25 18:15:33;;;;;;;;;;;6.30;58.60;;;4.07;62.87;102300.63;12250809;19;19914;-89
2023/01/25 18:19:34;;;;;;;;;;;6.50;58.70;;;4.17;62.71;102304.94;12253107;19;20249;-89
2023/01/25 18:23:42;;;;;;;;;;;6.30;58.70;;;4.10;62.96;102298.91;12252549;19;19919;-90
2023/01/25 18:27:44;;;;;;;;;;;6.20;58.60;;;4.16;62.91;102303.22;12248898;19;19949;-90